Bridgeville, PA (15017)

7:24 AM EST on February 26, 2017 (GMT -0500)
Montclair Dr. | | Change Station

Elev 1102 ft 40.35 °N, 80.09 °W | Updated 1 minute ago

Overcast
Overcast
27.1 °F
Feels Like 22 °F
N
4.0
Wind Variable Wind from West

Today
High -- | Low -- °F
--% Chance of Precip.
Yesterday
High -- | Low -- °F
Precip. -- in
Pressure 30.09 in
Visibility 8.0 miles
Clouds Few 3000 ft
Overcast 3800 ft
Windchill 22 °F
Dew Point 19 °F
Humidity 73%
Rainfall 0.00 in
Snow Depth Not available.
6:58 AM 6:08 PM
Waning Crescent, 0% visible
METAR KAGC 261153Z 25008KT 8SM -SN FEW030 OVC038 M03/M08 A3004 RMK AO2 SLP190 P0000 60000 70023 T10281083 11022 21033 53017
Pressure 30.09 in
Visibility 8.0 miles
Clouds Few 3000 ft
Overcast 3800 ft
Windchill 22 °F
Dew Point 19 °F
Humidity 73%
Rainfall 0.00 in
Snow Depth Not available.
6:58 AM 6:08 PM
Waning Crescent, 0% visible
METAR KAGC 261153Z 25008KT 8SM -SN FEW030 OVC038 M03/M08 A3004 RMK AO2 SLP190 P0000 60000 70023 T10281083 11022 21033 53017

Get Your Daily Forecast Email!

Thanks for signing up!

Be on the lookout for a verification email in your inbox.

You'll start receiving the daily forecast at 8 AM.

×

10-Day Weather Forecast

Almanac

Astronomy

Feb. 26, 2017 Rise Set
Actual Time
Civil Twilight
Nautical Twilight
Astronomical Twilight
Moon
Length of Visible Light
Length of Day
Tomorrow will be .
, % of the Moon is Illuminated

Today's Extremes

State Highs State Lows

Community

WunderPhotos

Upload Photos

1,962,540 photos uploaded!

WunderBlog® & News

Nearby

Air Quality

  Air Quality AQ Index Pollutant
Not available.

Snow Depth

Station Depth Elevation

Earthquake Activity

City Distance Mag. Time & Date
Minimum magnitude displayed is 2.5.

Coastal Water Temperatures

Place Temperature

Stations

Nearby Weather Stations

Station Location Temp. Windchill Dew Point Humidity Wind Precip. Elev Updated Type
                   

Watches & Warnings

There are currently no watches in effect.